Milk And Honey — WDF9265 — position and weather

sailwx.info

Track history (hours):
 
Tides and Currents Weather Stations Pressure Air Temp Water Temp Dewpoint Dewpoint Depression Visibility Wind Speed Wind Dir Waves Ship Positions

Milk And Honey

Owner: EKS Chartering Inc, Parsippany, NJ. More information available from US FCC via Universal Licensing System and Coast Guard Vessel Documentation Center.

Last reported at 2017-Mar-20 13:29 UTC. Time now 2017-Mar-26 17:07 UTC.
Position N 18°20' W 064°57'.

Length 40 m.

Type: Pleasure craft. MMSI: 367503380.

Date/timePositionNaut miles runAvg speedWind from/ knotsBaromVisibWave heightAir tempDewpointWater temp
2017-Mar-20 13:29N 18°20' W 064°57'5 0.1
2017-Mar-18 16:18N 18°18' W 064°52'5 6.2
2017-Mar-18 15:33N 18°20' W 064°48'0 0.0
2017-Mar-18 14:33N 18°20' W 064°48'12 8.0
2017-Mar-18 13:04N 18°22' W 064°36'1 0.1
2017-Mar-17 20:21N 18°22' W 064°34'3 4.3
2017-Mar-17 19:33N 18°23' W 064°31'0 0.0
2017-Mar-17 18:31N 18°23' W 064°31'0 0.0
2017-Mar-17 17:26N 18°23' W 064°31'0 0.0
2017-Mar-17 16:33N 18°23' W 064°31'2 1.7
2017-Mar-17 15:33N 18°23' W 064°33'7 5.7
2017-Mar-17 14:15N 18°26' W 064°40'0 0.5
2017-Mar-17 13:33N 18°26' W 064°40'0 0.0
2017-Mar-17 12:33N 18°26' W 064°40'0 0.0
2017-Mar-17 11:33N 18°26' W 064°40'0 0.0
2017-Mar-17 10:33N 18°26' W 064°40'0 0.0
2017-Mar-17 09:33N 18°26' W 064°40'0 0.0
2017-Mar-17 08:33N 18°26' W 064°40'0 0.0
2017-Mar-17 07:33N 18°26' W 064°40'0 0.0
2017-Mar-17 06:33N 18°26' W 064°40'0 0.0
2017-Mar-17 05:33N 18°26' W 064°40'0 0.0
2017-Mar-17 04:33N 18°26' W 064°40'0 0.0
2017-Mar-17 03:33N 18°26' W 064°40'0 0.0
2017-Mar-17 02:33N 18°26' W 064°40'0 0.0
2017-Mar-17 01:33N 18°26' W 064°40'0 0.0
2017-Mar-17 00:33N 18°26' W 064°40'0 0.0
2017-Mar-16 23:33N 18°26' W 064°40'0 0.0
2017-Mar-16 22:33N 18°26' W 064°40'0 0.0
2017-Mar-16 21:33N 18°26' W 064°40'0 0.0
2017-Mar-16 20:33N 18°26' W 064°40'0 0.0
2017-Mar-16 19:33N 18°26' W 064°40'0 0.0
2017-Mar-16 18:33N 18°26' W 064°40'7 6.7
2017-Mar-16 17:31N 18°30' W 064°34'  
2017-Mar-13 15:24N 18°28' W 064°36'910.5
2017-Mar-13 14:33N 18°26' W 064°45'1 0.7
2017-Mar-13 13:33N 18°26' W 064°46'0 0.0
2017-Mar-13 12:33N 18°26' W 064°46'0 0.0
2017-Mar-13 11:33N 18°26' W 064°46'0 0.0
2017-Mar-13 10:33N 18°26' W 064°46'0 0.0
2017-Mar-13 09:33N 18°26' W 064°46'0 0.0
2017-Mar-13 08:33N 18°26' W 064°46'0 0.0
2017-Mar-13 07:33N 18°26' W 064°46'0 0.0
2017-Mar-13 06:33N 18°26' W 064°46'0 0.0
2017-Mar-13 05:33N 18°26' W 064°46'0 0.0
2017-Mar-13 04:33N 18°26' W 064°46'0 0.0
2017-Mar-13 03:33N 18°26' W 064°46'0 0.0
2017-Mar-13 02:33N 18°26' W 064°46'0 0.0
2017-Mar-13 01:33N 18°26' W 064°46'0 0.0
2017-Mar-13 00:33N 18°26' W 064°46'0 0.0
2017-Mar-12 23:33N 18°26' W 064°46'0 0.0
2017-Mar-12 22:33N 18°26' W 064°46'0 0.0
2017-Mar-12 21:33N 18°26' W 064°46'0 0.0
2017-Mar-12 20:33N 18°26' W 064°46'0 0.0
2017-Mar-12 19:33N 18°26' W 064°46'0 0.0
2017-Mar-12 18:32N 18°26' W 064°46'0 0.0
2017-Mar-12 17:33N 18°26' W 064°46'0 0.0
2017-Mar-12 16:33N 18°26' W 064°46'9 9.4
2017-Mar-12 15:33N 18°20' W 064°39'2 0.3
2017-Mar-12 10:29N 18°19' W 064°37'0 0.0
2017-Mar-12 09:33N 18°19' W 064°37'0 0.0
2017-Mar-12 08:29N 18°19' W 064°37'0 0.0
2017-Mar-12 07:32N 18°19' W 064°37'0 0.0
2017-Mar-12 06:33N 18°19' W 064°37'0 0.0
2017-Mar-12 05:33N 18°19' W 064°37'0 0.0
2017-Mar-12 04:33N 18°19' W 064°37'0 0.0
2017-Mar-12 03:31N 18°19' W 064°37'1 0.2
2017-Mar-11 22:27N 18°20' W 064°38'5 5.9
2017-Mar-11 21:33N 18°23' W 064°43'4 3.6
2017-Mar-11 20:33N 18°22' W 064°46'11 0.4
2017-Mar-10 21:06N 18°20' W 064°57'0 0.0
2017-Mar-10 20:33N 18°20' W 064°57'  
Track history (hours):
 
Tides and Currents Weather Stations Pressure Air Temp Water Temp Dewpoint Dewpoint Depression Visibility Wind Speed Wind Dir Waves Ship Positions

Milk And Honey

Owner: EKS Chartering Inc, Parsippany, NJ. More information available from US FCC via Universal Licensing System and Coast Guard Vessel Documentation Center.

Last reported at 2017-Mar-20 13:29 UTC. Time now 2017-Mar-26 17:07 UTC.
Position N 18°20' W 064°57'.

Length 40 m.

Type: Pleasure craft. MMSI: 367503380.

Date/timePositionNaut miles runAvg speedWind from/ knotsBaromVisibWave heightAir tempDewpointWater temp
2017-Mar-20 13:29N 18°20' W 064°57'5 0.1
2017-Mar-18 16:18N 18°18' W 064°52'5 6.2
2017-Mar-18 15:33N 18°20' W 064°48'0 0.0
2017-Mar-18 14:33N 18°20' W 064°48'12 8.0
2017-Mar-18 13:04N 18°22' W 064°36'1 0.1
2017-Mar-17 20:21N 18°22' W 064°34'3 4.3
2017-Mar-17 19:33N 18°23' W 064°31'0 0.0
2017-Mar-17 18:31N 18°23' W 064°31'0 0.0
2017-Mar-17 17:26N 18°23' W 064°31'0 0.0
2017-Mar-17 16:33N 18°23' W 064°31'2 1.7
2017-Mar-17 15:33N 18°23' W 064°33'7 5.7
2017-Mar-17 14:15N 18°26' W 064°40'0 0.5
2017-Mar-17 13:33N 18°26' W 064°40'0 0.0
2017-Mar-17 12:33N 18°26' W 064°40'0 0.0
2017-Mar-17 11:33N 18°26' W 064°40'0 0.0
2017-Mar-17 10:33N 18°26' W 064°40'0 0.0
2017-Mar-17 09:33N 18°26' W 064°40'0 0.0
2017-Mar-17 08:33N 18°26' W 064°40'0 0.0
2017-Mar-17 07:33N 18°26' W 064°40'0 0.0
2017-Mar-17 06:33N 18°26' W 064°40'0 0.0
2017-Mar-17 05:33N 18°26' W 064°40'0 0.0
2017-Mar-17 04:33N 18°26' W 064°40'0 0.0
2017-Mar-17 03:33N 18°26' W 064°40'0 0.0
2017-Mar-17 02:33N 18°26' W 064°40'0 0.0
2017-Mar-17 01:33N 18°26' W 064°40'0 0.0
2017-Mar-17 00:33N 18°26' W 064°40'0 0.0
2017-Mar-16 23:33N 18°26' W 064°40'0 0.0
2017-Mar-16 22:33N 18°26' W 064°40'0 0.0
2017-Mar-16 21:33N 18°26' W 064°40'0 0.0
2017-Mar-16 20:33N 18°26' W 064°40'0 0.0
2017-Mar-16 19:33N 18°26' W 064°40'0 0.0
2017-Mar-16 18:33N 18°26' W 064°40'7 6.7
2017-Mar-16 17:31N 18°30' W 064°34'  
2017-Mar-13 15:24N 18°28' W 064°36'910.5
2017-Mar-13 14:33N 18°26' W 064°45'1 0.7
2017-Mar-13 13:33N 18°26' W 064°46'0 0.0
2017-Mar-13 12:33N 18°26' W 064°46'0 0.0
2017-Mar-13 11:33N 18°26' W 064°46'0 0.0
2017-Mar-13 10:33N 18°26' W 064°46'0 0.0
2017-Mar-13 09:33N 18°26' W 064°46'0 0.0
2017-Mar-13 08:33N 18°26' W 064°46'0 0.0
2017-Mar-13 07:33N 18°26' W 064°46'0 0.0
2017-Mar-13 06:33N 18°26' W 064°46'0 0.0
2017-Mar-13 05:33N 18°26' W 064°46'0 0.0
2017-Mar-13 04:33N 18°26' W 064°46'0 0.0
2017-Mar-13 03:33N 18°26' W 064°46'0 0.0
2017-Mar-13 02:33N 18°26' W 064°46'0 0.0
2017-Mar-13 01:33N 18°26' W 064°46'0 0.0
2017-Mar-13 00:33N 18°26' W 064°46'0 0.0
2017-Mar-12 23:33N 18°26' W 064°46'0 0.0
2017-Mar-12 22:33N 18°26' W 064°46'0 0.0
2017-Mar-12 21:33N 18°26' W 064°46'0 0.0
2017-Mar-12 20:33N 18°26' W 064°46'0 0.0
2017-Mar-12 19:33N 18°26' W 064°46'0 0.0
2017-Mar-12 18:32N 18°26' W 064°46'0 0.0
2017-Mar-12 17:33N 18°26' W 064°46'0 0.0
2017-Mar-12 16:33N 18°26' W 064°46'9 9.4
2017-Mar-12 15:33N 18°20' W 064°39'2 0.3
2017-Mar-12 10:29N 18°19' W 064°37'0 0.0
2017-Mar-12 09:33N 18°19' W 064°37'0 0.0
2017-Mar-12 08:29N 18°19' W 064°37'0 0.0
2017-Mar-12 07:32N 18°19' W 064°37'0 0.0
2017-Mar-12 06:33N 18°19' W 064°37'0 0.0
2017-Mar-12 05:33N 18°19' W 064°37'0 0.0
2017-Mar-12 04:33N 18°19' W 064°37'0 0.0
2017-Mar-12 03:31N 18°19' W 064°37'1 0.2
2017-Mar-11 22:27N 18°20' W 064°38'5 5.9
2017-Mar-11 21:33N 18°23' W 064°43'4 3.6
2017-Mar-11 20:33N 18°22' W 064°46'11 0.4
2017-Mar-10 21:06N 18°20' W 064°57'0 0.0
2017-Mar-10 20:33N 18°20' W 064°57'  

Dump ship's entire track history